Time;durP1;ratioP1;P1;durP2;ratioP2;P2;SDS_P1;SDS_P2;PMS_P1;PMS_P2;Temp;Humidity;BMP_temperature;BMP_pressure;BME280_temperature;BME280_humidity;BME280_pressure;Samples;Min_cycle;Max_cycle;Signal;HPM_P1;HPM_P2
2022/10/01 00:00:24;;;;;;;;;17.00;15.00;;;;;13.80;55.40;100377.47;5046642;28;45364;-55
2022/10/01 00:02:49;;;;;;;;;14.00;14.00;;;;;13.77;55.55;100355.56;5048316;28;45743;-53
2022/10/01 00:05:15;;;;;;;;;8.50;8.50;;;;;13.75;55.38;100362.72;5035959;28;45731;-54
2022/10/01 00:07:43;;;;;;;;;11.75;7.25;;;;;13.75;55.92;100363.56;5047745;28;46168;-53
2022/10/01 00:10:10;;;;;;;;;5.75;5.75;;;;;13.79;56.24;100357.25;5019895;28;45317;-53
2022/10/01 00:12:36;;;;;;;;;6.00;4.50;;;;;13.80;55.89;100352.84;5047715;28;45342;-53
2022/10/01 00:15:08;;;;;;;;;5.00;5.00;;;;;13.76;56.01;100338.88;5039434;28;45404;-54
2022/10/01 00:17:34;;;;;;;;;6.00;4.50;;;;;13.82;56.23;100349.25;5039487;28;46173;-53
2022/10/01 00:19:59;;;;;;;;;4.00;4.00;;;;;13.86;56.00;100346.47;5039479;28;45500;-53
2022/10/01 00:22:25;;;;;;;;;5.25;5.25;;;;;13.89;56.70;100319.97;5049635;28;45233;-54
2022/10/01 00:24:50;;;;;;;;;4.75;3.25;;;;;13.93;56.22;100325.09;5041699;28;45171;-53
2022/10/01 00:27:15;;;;;;;;;3.25;3.00;;;;;13.96;56.77;100330.28;5039183;28;45199;-50
2022/10/01 00:29:43;;;;;;;;;3.25;2.50;;;;;13.97;56.72;100332.00;5039461;28;45231;-53
2022/10/01 00:32:08;;;;;;;;;3.75;2.50;;;;;14.02;57.30;100312.47;5039765;28;45548;-54
2022/10/01 00:34:34;;;;;;;;;4.25;2.75;;;;;14.01;56.21;100303.69;5039251;28;45376;-52
2022/10/01 00:36:59;;;;;;;;;3.75;3.75;;;;;14.01;55.63;100298.38;5038931;28;53193;-52
2022/10/01 00:39:24;;;;;;;;;4.25;3.50;;;;;14.09;56.96;100303.44;5039052;28;45437;-53
2022/10/01 00:41:51;;;;;;;;;4.00;4.00;;;;;14.12;57.27;100298.03;5021556;28;45300;-53
2022/10/01 00:44:25;;;;;;;;;3.50;3.50;;;;;14.11;57.08;100294.53;5051236;28;45324;-52
2022/10/01 00:46:53;;;;;;;;;2.25;2.00;;;;;14.20;57.02;100305.66;5050344;28;46615;-54
2022/10/01 00:49:24;;;;;;;;;1.75;1.75;;;;;14.17;56.63;100288.16;5042522;28;45183;-55
2022/10/01 00:52:03;;;;;;;;;3.00;2.00;;;;;14.24;57.02;100288.81;5042775;28;45504;-54
2022/10/01 00:54:50;;;;;;;;;3.75;3.75;;;;;14.26;57.22;100313.38;5042701;28;45331;-55
2022/10/01 00:57:20;;;;;;;;;3.00;3.00;;;;;14.28;57.38;100301.81;5042003;28;46226;-55
2022/10/01 00:59:46;;;;;;;;;1.75;1.75;;;;;14.23;57.14;100276.50;5042346;28;45411;-55
2022/10/01 01:02:12;;;;;;;;;3.25;2.00;;;;;14.24;57.77;100291.44;5050571;28;45335;-51
2022/10/01 01:04:39;;;;;;;;;3.25;2.25;;;;;14.28;57.61;100295.69;5044412;28;45537;-54
2022/10/01 01:07:06;;;;;;;;;3.00;3.00;;;;;14.26;57.72;100300.16;5062623;28;45484;-55
2022/10/01 01:09:35;;;;;;;;;5.00;3.75;;;;;14.30;57.31;100292.06;5062318;28;45499;-56
2022/10/01 01:12:04;;;;;;;;;3.25;2.50;;;;;14.38;58.22;100293.59;5062415;28;45423;-57
2022/10/01 01:14:44;;;;;;;;;3.25;2.75;;;;;14.33;58.81;100299.03;5062354;28;45542;-56
2022/10/01 01:17:18;;;;;;;;;3.00;2.00;;;;;14.38;57.97;100278.56;5062394;28;45448;-56
2022/10/01 01:20:02;;;;;;;;;2.00;2.00;;;;;14.41;57.59;100296.09;5062225;28;45462;-56
2022/10/01 01:22:32;;;;;;;;;3.75;2.75;;;;;14.34;57.99;100287.53;5061136;28;45458;-57
2022/10/01 01:25:05;;;;;;;;;2.50;2.50;;;;;14.28;57.42;100271.91;5024330;28;45354;-58
2022/10/01 01:27:41;;;;;;;;;0.00;0.00;;;;;14.29;58.15;100282.41;5049804;28;46700;-57
2022/10/01 01:30:14;;;;;;;;;2.00;1.00;;;;;14.31;58.65;100271.78;5041917;28;45388;-56
2022/10/01 01:33:04;;;;;;;;;2.00;2.00;;;;;14.22;58.47;100272.97;5042094;28;45423;-56
2022/10/01 01:35:36;;;;;;;;;3.50;3.00;;;;;14.32;58.32;100270.00;5041896;28;45271;-57
2022/10/01 01:38:07;;;;;;;;;3.25;2.00;;;;;14.32;58.66;100291.16;5042011;28;45404;-57
2022/10/01 01:40:36;;;;;;;;;2.00;2.00;;;;;14.26;58.62;100274.63;5041622;28;45242;-57
2022/10/01 01:43:05;;;;;;;;;2.75;2.75;;;;;14.28;58.59;100240.19;5041695;28;45332;-56
2022/10/01 01:45:34;;;;;;;;;2.75;2.75;;;;;14.33;58.71;100250.59;5041661;28;45321;-54
2022/10/01 01:48:01;;;;;;;;;4.00;1.50;;;;;14.35;58.57;100240.81;5041087;28;45468;-56
2022/10/01 01:50:33;;;;;;;;;2.50;2.00;;;;;14.36;59.14;100261.91;5041404;28;45302;-56
2022/10/01 01:52:59;;;;;;;;;1.50;1.50;;;;;14.44;58.81;100251.06;5041804;28;45243;-56
2022/10/01 01:55:28;;;;;;;;;1.00;1.00;;;;;14.42;59.17;100255.53;5041483;28;45323;-57
2022/10/01 01:57:55;;;;;;;;;2.00;1.00;;;;;14.42;59.03;100252.88;5040442;28;46294;-57
2022/10/01 02:00:21;;;;;;;;;3.00;2.00;;;;;14.47;59.00;100243.00;5041471;28;45187;-57
2022/10/01 02:02:51;;;;;;;;;2.00;2.00;;;;;14.43;58.97;100228.19;5054349;28;45340;-57
2022/10/01 02:05:20;;;;;;;;;2.75;2.75;;;;;14.46;59.48;100226.28;5061386;28;45322;-57
2022/10/01 02:08:28;;;;;;;;;0.00;0.00;;;;;14.54;59.08;100235.69;5061327;28;46217;-58
2022/10/01 02:11:21;;;;;;;;;2.00;2.00;;;;;14.51;59.05;100247.22;5061460;28;45361;-56
2022/10/01 02:13:56;;;;;;;;;1.00;1.00;;;;;14.52;59.20;100219.88;5061725;28;45304;-57
2022/10/01 02:16:58;;;;;;;;;1.75;1.75;;;;;14.53;59.24;100239.28;5061427;28;45419;-57
2022/10/01 02:20:00;;;;;;;;;2.25;2.00;;;;;14.56;59.93;100234.69;5061197;28;46313;-57
2022/10/01 02:22:37;;;;;;;;;2.00;1.00;;;;;14.59;59.61;100233.72;5044631;28;45339;-58
2022/10/01 02:25:07;;;;;;;;;1.00;1.00;;;;;14.56;60.01;100228.56;5041446;28;45441;-57
2022/10/01 02:27:45;;;;;;;;;1.25;1.25;;;;;14.49;59.73;100227.94;5040818;28;45391;-56
2022/10/01 02:30:11;;;;;;;;;1.25;1.25;;;;;14.54;59.65;100220.69;5040877;28;45387;-58
2022/10/01 02:32:39;;;;;;;;;2.25;1.00;;;;;14.57;59.84;100225.00;5041053;28;45266;-61
2022/10/01 02:35:11;;;;;;;;;1.25;1.25;;;;;14.65;59.67;100214.16;5041347;28;45285;-57
2022/10/01 02:37:39;;;;;;;;;1.75;0.50;;;;;14.58;59.86;100216.16;5040896;28;45328;-58
2022/10/01 02:40:08;;;;;;;;;0.00;0.00;;;;;14.65;58.88;100224.72;5040713;28;46217;-56
2022/10/01 02:42:35;;;;;;;;;0.00;0.00;;;;;14.66;59.49;100222.00;5040701;28;45301;-57
2022/10/01 02:45:03;;;;;;;;;1.50;0.50;;;;;14.71;59.57;100235.06;5040903;28;45332;-56
2022/10/01 02:47:33;;;;;;;;;0.50;0.50;;;;;14.68;59.58;100235.16;5023297;28;45178;-56
2022/10/01 02:50:00;;;;;;;;;1.75;1.00;;;;;14.76;59.89;100225.16;5040533;28;45431;-56
2022/10/01 02:52:48;;;;;;;;;0.00;0.00;;;;;14.78;59.47;100229.47;5040844;28;45337;-56
2022/10/01 02:55:17;;;;;;;;;1.00;1.00;;;;;14.82;60.02;100224.03;5040763;28;45320;-56
2022/10/01 02:57:43;;;;;;;;;0.50;0.50;;;;;14.85;60.04;100216.84;5040300;28;45436;-57
2022/10/01 03:00:13;;;;;;;;;1.25;0.25;;;;;14.86;59.72;100207.16;5022574;28;48404;-56
2022/10/01 03:02:38;;;;;;;;;0.25;0.25;;;;;14.92;60.20;100199.81;5052289;28;45273;-57
2022/10/01 03:05:04;;;;;;;;;1.00;1.00;;;;;14.91;60.75;100184.00;5060877;28;45420;-56
2022/10/01 03:07:34;;;;;;;;;0.50;0.50;;;;;14.89;60.27;100169.97;5060673;28;45508;-56
2022/10/01 03:09:59;;;;;;;;;0.25;0.00;;;;;14.94;60.09;100179.47;5059137;28;46173;-57
2022/10/01 03:12:25;;;;;;;;;1.50;0.50;;;;;14.93;60.21;100193.59;5042120;28;45335;-57
2022/10/01 03:14:52;;;;;;;;;0.50;0.50;;;;;14.93;59.78;100179.50;5023950;28;45364;-57
2022/10/01 03:17:17;;;;;;;;;0.25;0.00;;;;;14.95;59.71;100178.53;5052867;28;45447;-58
2022/10/01 03:19:43;;;;;;;;;0.00;0.00;;;;;15.00;59.62;100166.91;5060323;28;46133;-57
2022/10/01 03:22:12;;;;;;;;;0.25;0.25;;;;;15.00;60.02;100157.16;5060582;28;45336;-57
2022/10/01 03:24:37;;;;;;;;;1.25;0.50;;;;;15.03;60.32;100174.69;5041108;28;45356;-57
2022/10/01 03:27:03;;;;;;;;;0.00;0.00;;;;;15.05;60.17;100156.97;5040144;28;45263;-57
2022/10/01 03:29:28;;;;;;;;;0.50;0.50;;;;;15.04;61.16;100173.78;5039967;28;45448;-56
2022/10/01 03:31:54;;;;;;;;;0.50;0.50;;;;;15.04;60.54;100174.66;5040515;28;45280;-56
2022/10/01 03:34:19;;;;;;;;;0.50;0.25;;;;;15.06;60.61;100185.16;5022324;28;45294;-56
2022/10/01 03:36:45;;;;;;;;;0.00;0.00;;;;;15.05;60.45;100171.06;5040108;28;45617;-56
2022/10/01 03:39:12;;;;;;;;;0.00;0.00;;;;;15.12;60.24;100161.09;5039725;28;47033;-57
2022/10/01 03:41:38;;;;;;;;;0.00;0.00;;;;;15.08;59.98;100163.00;5039919;28;45332;-56
2022/10/01 03:44:04;;;;;;;;;0.25;0.25;;;;;15.14;60.25;100174.25;5040003;28;45290;-56
2022/10/01 03:46:29;;;;;;;;;1.00;0.00;;;;;15.19;60.38;100172.28;5022247;28;45432;-56
2022/10/01 03:48:56;;;;;;;;;0.00;0.00;;;;;15.18;60.67;100175.84;5039765;28;45662;-57
2022/10/01 03:51:22;;;;;;;;;0.00;0.00;;;;;15.19;60.71;100162.53;5040037;28;45230;-56
2022/10/01 03:53:48;;;;;;;;;0.00;0.00;;;;;15.18;60.50;100168.78;5039951;28;45240;-56
2022/10/01 03:56:14;;;;;;;;;0.00;0.00;;;;;15.16;60.58;100167.13;5039923;28;45496;-56
2022/10/01 03:58:39;;;;;;;;;0.75;0.75;;;;;15.22;60.33;100177.41;5039401;28;46187;-56
2022/10/01 04:01:05;;;;;;;;;0.00;0.00;;;;;15.26;60.41;100165.78;5039665;28;45325;-54
2022/10/01 04:03:30;;;;;;;;;0.00;0.00;;;;;15.28;60.61;100185.09;5058782;28;45414;-57
2022/10/01 04:05:56;;;;;;;;;0.00;0.00;;;;;15.30;60.60;100174.47;5059939;28;45318;-57
2022/10/01 04:08:22;;;;;;;;;0.00;0.00;;;;;15.35;60.41;100206.91;5059739;28;45310;-56
2022/10/01 04:10:48;;;;;;;;;0.00;0.00;;;;;15.33;60.12;100193.69;5059654;28;45397;-57
2022/10/01 04:13:14;;;;;;;;;0.00;0.00;;;;;15.41;60.73;100225.16;5059643;28;45338;-56
2022/10/01 04:15:39;;;;;;;;;1.00;1.00;;;;;15.40;61.13;100207.56;5059847;28;45463;-57
2022/10/01 04:18:05;;;;;;;;;0.00;0.00;;;;;15.42;61.36;100197.75;5059466;28;47449;-56
2022/10/01 04:20:32;;;;;;;;;0.00;0.00;;;;;15.41;61.08;100228.66;5041899;28;45237;-57
2022/10/01 04:22:58;;;;;;;;;0.75;0.00;;;;;15.39;61.32;100227.84;5058366;28;45243;-57
2022/10/01 04:25:24;;;;;;;;;0.25;0.25;;;;;15.35;60.89;100212.19;5045155;28;45232;-57
2022/10/01 04:27:54;;;;;;;;;0.00;0.00;;;;;15.39;61.07;100213.78;5050665;28;45325;-57
2022/10/01 04:30:19;;;;;;;;;0.00;0.00;;;;;15.44;61.46;100225.91;5050048;28;45458;-57
2022/10/01 04:32:45;;;;;;;;;0.00;0.00;;;;;15.45;61.06;100234.69;5052164;28;45499;-57
2022/10/01 04:35:10;;;;;;;;;0.00;0.00;;;;;15.43;61.27;100258.59;5033819;28;45452;-56
2022/10/01 04:37:36;;;;;;;;;0.00;0.00;;;;;15.51;61.45;100236.19;5051598;28;46039;-57
2022/10/01 04:40:01;;;;;;;;;0.00;0.00;;;;;15.47;61.00;100243.44;5050361;28;45736;-57
2022/10/01 04:42:27;;;;;;;;;0.00;0.00;;;;;15.51;61.55;100222.97;5049955;28;45537;-57
2022/10/01 04:44:52;;;;;;;;;0.00;0.00;;;;;15.53;61.44;100237.84;5052166;28;45546;-58
2022/10/01 04:47:17;;;;;;;;;0.00;0.00;;;;;15.47;61.57;100237.28;5051556;28;48923;-57
2022/10/01 04:49:42;;;;;;;;;0.00;0.00;;;;;15.57;61.22;100259.78;5024706;28;45306;-57
2022/10/01 04:52:08;;;;;;;;;0.75;0.00;;;;;15.57;61.68;100258.00;5041485;28;48059;-57
2022/10/01 04:54:33;;;;;;;;;0.00;0.00;;;;;15.58;61.72;100254.44;5042091;28;47272;-56
2022/10/01 04:56:58;;;;;;;;;0.00;0.00;;;;;15.63;61.51;100258.66;5040265;28;46039;-56
2022/10/01 04:59:24;;;;;;;;;0.75;0.75;;;;;15.69;61.68;100271.66;5040331;28;45360;-56
2022/10/01 05:01:50;;;;;;;;;0.00;0.00;;;;;15.71;61.96;100272.44;5045059;28;45455;-57
2022/10/01 05:04:15;;;;;;;;;0.00;0.00;;;;;15.70;61.78;100273.38;5060464;28;45373;-56
2022/10/01 05:06:40;;;;;;;;;0.00;0.00;;;;;15.68;62.05;100259.34;5060226;28;46788;-57
2022/10/01 05:09:06;;;;;;;;;0.75;0.00;;;;;15.73;62.30;100260.00;5041759;28;53554;-57
2022/10/01 05:11:33;;;;;;;;;0.00;0.00;;;;;15.74;61.82;100267.00;5061340;28;45384;-57
2022/10/01 05:13:58;;;;;;;;;0.00;0.00;;;;;15.74;62.21;100278.47;5062516;28;45417;-57
2022/10/01 05:16:24;;;;;;;;;0.75;0.00;;;;;15.71;61.82;100290.97;5062464;28;45229;-58
2022/10/01 05:18:49;;;;;;;;;0.00;0.00;;;;;15.71;62.27;100275.97;5062530;28;45347;-56
2022/10/01 05:21:15;;;;;;;;;0.00;0.00;;;;;15.70;61.93;100271.59;5062388;28;46087;-55
2022/10/01 05:23:41;;;;;;;;;0.00;0.00;;;;;15.73;62.05;100284.69;5051713;28;45265;-57
2022/10/01 05:26:07;;;;;;;;;0.00;0.00;;;;;15.77;61.47;100290.72;5042017;28;45321;-56
2022/10/01 05:28:34;;;;;;;;;0.00;0.00;;;;;15.76;61.56;100286.38;5042017;28;45371;-56
2022/10/01 05:31:01;;;;;;;;;0.00;0.00;;;;;15.77;61.74;100286.28;5042243;28;45418;-56
2022/10/01 05:33:28;;;;;;;;;1.00;0.00;;;;;15.79;62.09;100291.50;5041104;28;45536;-56
2022/10/01 05:35:53;;;;;;;;;0.00;0.00;;;;;15.77;61.78;100285.41;5041822;28;47217;-56
2022/10/01 05:38:19;;;;;;;;;0.00;0.00;;;;;15.77;62.38;100290.72;5041668;28;45313;-57
2022/10/01 05:40:46;;;;;;;;;0.00;0.00;;;;;15.77;62.01;100299.53;5043197;28;49413;-57
2022/10/01 05:43:11;;;;;;;;;0.00;0.00;;;;;15.81;61.67;100304.69;5061745;28;45572;-57
2022/10/01 05:45:37;;;;;;;;;0.00;0.00;;;;;15.85;61.86;100316.94;5043211;28;47251;-57
2022/10/01 05:48:05;;;;;;;;;1.00;0.00;;;;;15.85;62.11;100317.78;5060282;28;45392;-56
2022/10/01 05:50:32;;;;;;;;;0.00;0.00;;;;;15.91;61.96;100312.22;5061819;28;45402;-56
2022/10/01 05:52:59;;;;;;;;;0.00;0.00;;;;;15.92;61.91;100318.38;5060637;28;45570;-56
2022/10/01 05:55:24;;;;;;;;;1.00;0.00;;;;;15.98;61.91;100322.56;5061760;28;46163;-56
2022/10/01 05:58:10;;;;;;;;;0.00;0.00;;;;;16.04;61.94;100332.88;5051174;28;45238;-57
2022/10/01 06:00:37;;;;;;;;;0.00;0.00;;;;;16.05;61.77;100334.59;5041998;28;45313;-56
2022/10/01 06:03:04;;;;;;;;;0.00;0.00;;;;;16.06;62.22;100337.19;5056565;28;45463;-57
2022/10/01 06:05:31;;;;;;;;;0.00;0.00;;;;;16.11;61.64;100339.63;5061815;28;45324;-57
2022/10/01 06:07:57;;;;;;;;;0.00;0.00;;;;;16.14;61.60;100347.47;5061703;28;45375;-57
2022/10/01 06:10:23;;;;;;;;;0.00;0.00;;;;;16.19;61.94;100348.13;5061854;28;45531;-57
2022/10/01 06:12:49;;;;;;;;;1.00;1.00;;;;;16.19;62.02;100350.78;5042911;28;45482;-57
2022/10/01 06:15:15;;;;;;;;;0.75;0.75;;;;;16.25;61.76;100363.75;5061491;28;47185;-58
2022/10/01 06:17:44;;;;;;;;;0.00;0.00;;;;;16.27;61.62;100365.47;5061501;28;45360;-59
2022/10/01 06:20:18;;;;;;;;;1.00;0.00;;;;;16.30;61.74;100379.47;5061422;28;45482;-59
2022/10/01 06:22:51;;;;;;;;;0.00;0.00;;;;;16.36;61.92;100395.13;5058796;28;45507;-62
2022/10/01 06:25:16;;;;;;;;;0.75;0.00;;;;;16.39;61.61;100392.31;5041312;28;46040;-58
2022/10/01 06:27:42;;;;;;;;;0.00;0.00;;;;;16.41;61.00;100390.47;5040854;28;45265;-55
2022/10/01 06:30:08;;;;;;;;;0.00;0.00;;;;;16.44;61.52;100389.47;5023638;28;45286;-53
2022/10/01 06:32:33;;;;;;;;;0.00;0.00;;;;;16.47;61.47;100391.97;5041248;28;45310;-52
2022/10/01 06:34:58;;;;;;;;;0.00;0.00;;;;;16.48;61.65;100391.03;5041115;28;46270;-54
2022/10/01 06:37:24;;;;;;;;;0.00;0.00;;;;;16.47;61.82;100393.78;5040768;28;49490;-50
2022/10/01 06:39:49;;;;;;;;;0.00;0.00;;;;;16.52;61.76;100391.78;5041051;28;45258;-59
2022/10/01 06:42:15;;;;;;;;;0.00;0.00;;;;;16.54;61.44;100390.78;5046924;28;45506;-59
2022/10/01 06:44:41;;;;;;;;;0.00;0.00;;;;;16.58;61.69;100399.47;5048000;28;45822;-60
2022/10/01 06:47:07;;;;;;;;;0.75;0.75;;;;;16.62;61.81;100408.16;5042658;28;45458;-58
2022/10/01 06:49:33;;;;;;;;;1.00;0.00;;;;;16.65;61.54;100416.81;5040647;28;45433;-58
2022/10/01 06:54:44;;;;;;;;;0.50;0.50;;;;;16.66;61.53;100389.34;5050816;28;45677;-58
2022/10/01 06:57:09;;;;;;;;;1.00;0.75;;;;;16.71;61.39;100405.06;5055856;28;45268;-59
2022/10/01 06:59:37;;;;;;;;;0.75;0.75;;;;;16.73;61.29;100408.53;5040706;28;45293;-58
2022/10/01 07:02:04;;;;;;;;;0.50;0.50;;;;;16.74;61.60;100413.75;5056182;28;45543;-58
2022/10/01 07:04:29;;;;;;;;;2.25;0.25;;;;;16.77;61.53;100419.88;5055089;28;45563;-58
2022/10/01 07:06:55;;;;;;;;;1.75;0.50;;;;;16.81;61.60;100414.31;5049521;28;45463;-60
2022/10/01 07:09:25;;;;;;;;;2.00;0.00;;;;;16.80;61.33;100420.56;5042492;28;45621;-61
2022/10/01 07:11:51;;;;;;;;;1.00;1.00;;;;;16.80;61.47;100427.69;5046730;28;45516;-58
2022/10/01 07:14:16;;;;;;;;;1.25;0.50;;;;;16.82;61.51;100424.00;5059153;28;45429;-59
2022/10/01 07:16:42;;;;;;;;;2.00;1.00;;;;;16.85;61.47;100437.13;5042410;28;45404;-62
2022/10/01 07:19:07;;;;;;;;;1.00;1.00;;;;;16.88;61.37;100442.31;5047164;28;48659;-62
2022/10/01 07:21:32;;;;;;;;;0.50;0.00;;;;;16.88;61.45;100436.16;5053360;28;45389;-62
2022/10/01 07:23:58;;;;;;;;;0.25;0.25;;;;;16.90;61.12;100445.78;5040878;28;46319;-60
2022/10/01 07:26:23;;;;;;;;;1.00;1.00;;;;;16.96;61.05;100465.03;5051089;28;45291;-58
2022/10/01 07:28:48;;;;;;;;;1.75;1.00;;;;;16.98;61.17;100458.72;5046673;28;45441;-66
2022/10/01 07:31:14;;;;;;;;;1.25;0.25;;;;;17.01;60.93;100469.19;5049026;28;52246;-64
2022/10/01 07:33:40;;;;;;;;;2.00;0.50;;;;;17.01;61.35;100473.66;5053724;28;45618;-60
2022/10/01 07:36:08;;;;;;;;;2.00;0.75;;;;;17.01;61.15;100471.84;5064184;28;45438;-54
2022/10/01 07:38:34;;;;;;;;;0.00;0.00;;;;;17.06;61.08;100479.59;5045280;28;46308;-52
2022/10/01 07:41:01;;;;;;;;;0.75;0.75;;;;;17.09;60.83;100474.13;5041843;28;45309;-51
2022/10/01 07:43:27;;;;;;;;;3.75;2.00;;;;;17.12;61.14;100492.59;5048233;28;46906;-51
2022/10/01 07:45:53;;;;;;;;;2.50;1.75;;;;;17.14;61.09;100487.22;5052007;28;45252;-53
2022/10/01 07:48:19;;;;;;;;;2.25;2.00;;;;;17.19;60.84;100488.75;5046336;28;45743;-49
2022/10/01 07:50:45;;;;;;;;;2.75;2.00;;;;;17.19;60.73;100486.09;5047286;28;45369;-55
2022/10/01 07:53:11;;;;;;;;;2.00;2.00;;;;;17.24;60.85;100492.97;5052664;28;46177;-56
2022/10/01 07:55:36;;;;;;;;;1.25;1.00;;;;;17.26;60.89;100497.28;5051673;28;45316;-52
2022/10/01 07:58:02;;;;;;;;;1.50;1.50;;;;;17.29;60.76;100501.59;5045826;28;45343;-54
2022/10/01 08:00:30;;;;;;;;;2.25;1.00;;;;;17.30;60.43;100511.28;5047423;28;45439;-57
2022/10/01 08:02:56;;;;;;;;;1.50;1.50;;;;;17.30;60.79;100508.63;5050808;28;45439;-57
2022/10/01 08:05:26;;;;;;;;;2.00;0.00;;;;;17.35;60.38;100519.91;5059554;28;45292;-50
2022/10/01 08:07:52;;;;;;;;;1.00;1.00;;;;;17.34;60.28;100515.50;5059116;28;45320;-57
2022/10/01 08:10:19;;;;;;;;;0.75;0.00;;;;;17.38;60.16;100527.72;5058959;28;45349;-56
2022/10/01 08:12:45;;;;;;;;;1.75;1.50;;;;;17.41;60.05;100522.28;5039271;28;47285;-57
2022/10/01 08:15:13;;;;;;;;;0.75;0.75;;;;;17.42;59.98;100524.00;5059813;28;45266;-57
2022/10/01 08:17:39;;;;;;;;;2.00;1.00;;;;;17.39;59.67;100524.13;5059495;28;45257;-58
2022/10/01 08:20:07;;;;;;;;;3.75;2.25;;;;;17.43;59.83;100525.69;5059215;28;45447;-58
2022/10/01 08:22:33;;;;;;;;;4.00;2.50;;;;;17.45;59.62;100523.84;5049938;28;46211;-58
2022/10/01 08:24:58;;;;;;;;;5.75;2.25;;;;;17.43;59.33;100532.81;5066710;28;45275;-58
2022/10/01 08:27:25;;;;;;;;;4.00;1.00;;;;;17.47;59.14;100542.34;5066199;28;45317;-55
2022/10/01 08:29:51;;;;;;;;;3.75;1.25;;;;;17.51;59.35;100547.47;5040901;28;45518;-55
2022/10/01 08:32:16;;;;;;;;;3.25;1.00;;;;;17.53;59.12;100550.03;5058107;28;46364;-54
2022/10/01 08:34:42;;;;;;;;;1.75;1.00;;;;;17.51;59.20;100552.78;5058768;28;45243;-55
2022/10/01 08:37:07;;;;;;;;;1.00;0.00;;;;;17.58;59.08;100556.00;5058465;28;45308;-55
2022/10/01 08:39:32;;;;;;;;;3.25;2.00;;;;;17.59;59.05;100560.38;5051260;28;45277;-55
2022/10/01 08:42:04;;;;;;;;;3.00;2.25;;;;;17.62;58.94;100554.06;5033269;28;46519;-54
2022/10/01 08:44:42;;;;;;;;;4.75;2.00;;;;;17.68;58.94;100564.41;5046433;28;45468;-53
2022/10/01 08:47:15;;;;;;;;;2.00;2.00;;;;;17.60;58.91;100559.47;5057591;28;45424;-55
2022/10/01 08:49:46;;;;;;;;;1.50;1.00;;;;;17.73;58.82;100570.38;5058246;28;45433;-55
2022/10/01 08:52:23;;;;;;;;;5.25;3.00;;;;;17.76;58.51;100580.00;5040582;28;45659;-55
2022/10/01 08:55:01;;;;;;;;;4.25;3.00;;;;;17.75;58.64;100579.16;5057793;28;45458;-55
2022/10/01 08:57:50;;;;;;;;;2.50;2.25;;;;;17.76;58.38;100585.31;5057091;28;45449;-53
2022/10/01 09:00:18;;;;;;;;;2.25;2.00;;;;;17.76;58.62;100588.84;5028175;28;45384;-54
2022/10/01 09:02:45;;;;;;;;;1.50;1.50;;;;;17.83;58.55;100592.91;5034296;28;46835;-61
2022/10/01 09:05:26;;;;;;;;;3.00;1.50;;;;;17.86;58.54;100599.88;5037014;28;45752;-54
2022/10/01 09:08:08;;;;;;;;;2.25;2.00;;;;;17.90;58.60;100597.94;5055631;28;45415;-57
2022/10/01 09:10:51;;;;;;;;;1.00;1.00;;;;;17.94;58.61;100602.25;5061746;28;45691;-61
2022/10/01 09:13:25;;;;;;;;;4.00;2.50;;;;;17.97;58.59;100604.75;5059182;28;46307;-58
2022/10/01 09:16:05;;;;;;;;;4.50;2.25;;;;;18.01;58.77;100611.63;5062259;28;45256;-59
2022/10/01 09:18:57;;;;;;;;;2.25;2.00;;;;;18.02;58.43;100613.38;5062137;28;45427;-56
2022/10/01 09:21:52;;;;;;;;;3.50;3.50;;;;;18.12;58.64;100613.78;5058041;28;45874;-58
2022/10/01 09:24:37;;;;;;;;;6.50;2.25;;;;;18.14;58.49;100620.75;5050741;28;45233;-70
2022/10/01 09:27:12;;;;;;;;;3.25;2.00;;;;;18.19;58.37;100626.72;5060318;28;45342;-58
2022/10/01 09:29:46;;;;;;;;;4.75;1.75;;;;;18.26;58.53;100629.09;5023646;28;45417;-53
2022/10/01 09:32:16;;;;;;;;;2.75;1.75;;;;;18.29;58.14;100636.94;5054176;28;45342;-62
2022/10/01 09:34:43;;;;;;;;;2.25;1.75;;;;;18.26;58.46;100639.72;5043554;28;48144;-62
2022/10/01 09:37:26;;;;;;;;;1.00;1.00;;;;;18.37;58.43;100637.41;5059054;28;45324;-53
2022/10/01 09:40:20;;;;;;;;;3.25;1.25;;;;;18.37;57.94;100642.72;5060565;28;45475;-53
2022/10/01 09:42:46;;;;;;;;;2.50;1.00;;;;;18.37;57.95;100640.06;5052452;28;45416;-58
2022/10/01 09:45:17;;;;;;;;;2.25;2.00;;;;;18.41;58.10;100648.75;5058936;28;45430;-60
2022/10/01 09:47:47;;;;;;;;;5.25;1.25;;;;;18.45;57.64;100650.34;5060470;28;45422;-59
2022/10/01 09:50:19;;;;;;;;;2.75;2.00;;;;;18.46;57.73;100652.06;5058595;28;45480;-60
2022/10/01 09:52:48;;;;;;;;;2.50;2.00;;;;;18.47;57.80;100662.63;5060370;28;45496;-51
2022/10/01 09:55:17;;;;;;;;;1.00;1.00;;;;;18.50;57.70;100657.16;5039746;28;46284;-60
2022/10/01 09:57:51;;;;;;;;;3.00;2.00;;;;;18.54;57.72;100651.69;5053410;28;45319;-54
2022/10/01 10:00:19;;;;;;;;;2.25;2.25;;;;;18.55;57.35;100656.06;5039287;28;45329;-57
2022/10/01 10:02:47;;;;;;;;;4.50;1.25;;;;;18.54;57.36;100659.66;5042629;28;45447;-52
2022/10/01 10:05:24;;;;;;;;;2.50;1.00;;;;;18.56;57.60;100668.44;5060681;28;46393;-52
2022/10/01 10:07:58;;;;;;;;;5.25;2.00;;;;;18.61;57.44;100677.06;5041448;28;45391;-57
2022/10/01 10:10:35;;;;;;;;;3.00;2.25;;;;;18.63;57.23;100681.38;5061454;28;45477;-54
2022/10/01 10:13:08;;;;;;;;;4.00;3.00;;;;;18.66;57.18;100685.69;5057559;28;45487;-55
2022/10/01 10:15:34;;;;;;;;;7.00;2.50;;;;;18.66;57.44;100678.53;5039848;28;46239;-59
2022/10/01 10:18:11;;;;;;;;;4.00;3.00;;;;;18.73;56.77;100692.44;5058633;28;45269;-51
2022/10/01 10:20:40;;;;;;;;;4.00;1.25;;;;;18.75;56.84;100687.88;5061051;28;45326;-52
2022/10/01 10:23:12;;;;;;;;;4.00;3.50;;;;;18.82;56.94;100691.97;5049339;28;45512;-57
2022/10/01 10:25:37;;;;;;;;;1.25;1.00;;;;;18.84;56.62;100695.44;5040240;28;47483;-57
2022/10/01 10:28:03;;;;;;;;;3.25;2.50;;;;;18.86;56.61;100690.03;5060591;28;45174;-59
2022/10/01 10:30:29;;;;;;;;;1.25;1.25;;;;;18.89;56.97;100691.66;5060609;28;45360;-55
2022/10/01 10:33:04;;;;;;;;;4.00;2.50;;;;;18.94;56.90;100684.34;5061191;28;45712;-58
2022/10/01 10:35:30;;;;;;;;;3.75;1.75;;;;;19.00;56.70;100694.69;5042537;28;46195;-58
2022/10/01 10:37:56;;;;;;;;;2.00;1.25;;;;;19.02;56.57;100699.94;5060779;28;45375;-61
2022/10/01 10:40:30;;;;;;;;;3.00;2.00;;;;;19.07;56.60;100698.78;5060598;28;45427;-61
2022/10/01 10:42:57;;;;;;;;;4.50;2.75;;;;;19.12;56.04;100696.72;5055695;28;45379;-59
2022/10/01 10:45:32;;;;;;;;;3.75;2.75;;;;;19.16;56.36;100702.78;5060465;28;46233;-57
2022/10/01 10:48:00;;;;;;;;;2.50;2.00;;;;;19.23;56.30;100705.97;5060720;28;45411;-52
2022/10/01 10:50:30;;;;;;;;;4.25;2.25;;;;;19.27;55.95;100704.88;5057259;28;45516;-53
2022/10/01 10:52:56;;;;;;;;;5.50;2.00;;;;;19.35;56.12;100718.66;5052014;28;45427;-52
2022/10/01 10:55:24;;;;;;;;;4.50;3.25;;;;;19.41;55.40;100717.50;5047905;28;45357;-53
2022/10/01 10:57:51;;;;;;;;;2.00;2.00;;;;;19.44;55.53;100710.19;5062267;28;45348;-47
2022/10/01 11:00:25;;;;;;;;;5.00;3.50;;;;;19.49;55.37;100715.28;5059266;28;45301;-52
2022/10/01 11:03:00;;;;;;;;;2.25;2.25;;;;;19.53;55.23;100716.00;5040950;28;45318;-51
2022/10/01 11:05:30;;;;;;;;;1.50;1.50;;;;;19.57;54.73;100720.22;5050338;28;46314;-53
2022/10/01 11:07:59;;;;;;;;;6.00;2.75;;;;;19.64;54.85;100722.47;5058362;28;45436;-50
2022/10/01 11:11:02;;;;;;;;;2.00;2.00;;;;;19.70;54.61;100731.97;5060083;28;45352;-56
2022/10/01 11:13:34;;;;;;;;;2.75;1.25;;;;;19.75;54.51;100731.75;5056384;28;45535;-53
2022/10/01 11:16:23;;;;;;;;;3.25;3.00;;;;;19.84;54.41;100735.75;5050395;28;45446;-51
2022/10/01 11:19:04;;;;;;;;;2.75;2.50;;;;;19.87;54.73;100733.75;5054836;28;45323;-52
2022/10/01 11:21:32;;;;;;;;;4.75;2.00;;;;;19.93;54.31;100744.09;5056754;28;45697;-52
2022/10/01 11:24:18;;;;;;;;;3.50;2.00;;;;;19.95;53.99;100736.88;5051174;28;45537;-57
2022/10/01 11:26:52;;;;;;;;;6.00;4.00;;;;;19.97;54.31;100759.00;5050291;28;46382;-52
2022/10/01 11:29:51;;;;;;;;;11.25;8.25;;;;;19.98;54.12;100751.88;5055979;28;45300;-53
2022/10/01 11:32:41;;;;;;;;;7.75;5.75;;;;;20.03;53.62;100736.47;5054503;28;45237;-52
2022/10/01 11:35:43;;;;;;;;;6.00;2.00;;;;;20.06;53.76;100747.00;5058330;28;45419;-49
2022/10/01 11:38:27;;;;;;;;;7.00;3.75;;;;;20.11;53.94;100746.72;5057511;28;47205;-48